Time,TemperatureF,DewpointF,PressureIn,WindDirection,WindDirectionDegrees,WindSpeedMPH,WindSpeedGustMPH,Humidity,HourlyPrecipIn,Conditions,Clouds,dailyrainin,SoftwareType,DateUTC
2013-02-07 00:00:00,14.0,12.0,-100.00,North,-999,-999.0,-999.0,90,-99.99,,,-99.99,,2013-02-07 07:00:00,
2013-02-07 00:32:00,14.0,12.0,-100.00,North,-999,-999.0,-999.0,90,-99.99,,,-99.99,,2013-02-07 07:32:00,
2013-02-07 00:42:00,14.0,12.0,-100.00,North,-999,-999.0,-999.0,90,-99.99,,,-99.99,,2013-02-07 07:42:00,
2013-02-07 00:52:00,14.0,12.0,-100.00,North,-999,-999.0,-999.0,90,-99.99,,,-99.99,,2013-02-07 07:52:00,
2013-02-07 01:00:00,12.0,9.0,-100.00,North,-999,-999.0,-999.0,88,-99.99,,,-99.99,,2013-02-07 08:00:00,
2013-02-07 01:32:00,12.0,9.0,-100.00,North,-999,-999.0,-999.0,88,-99.99,,,-99.99,,2013-02-07 08:32:00,
2013-02-07 01:42:00,12.0,9.0,-100.00,North,-999,-999.0,-999.0,88,-99.99,,,-99.99,,2013-02-07 08:42:00,
2013-02-07 01:52:00,12.0,9.0,-100.00,North,-999,-999.0,-999.0,88,-99.99,,,-99.99,,2013-02-07 08:52:00,
2013-02-07 02:00:00,9.0,5.0,-100.00,North,-999,-999.0,-999.0,82,-99.99,,,-99.99,,2013-02-07 09:00:00,
2013-02-07 02:32:00,9.0,5.0,-100.00,North,-999,-999.0,-999.0,82,-99.99,,,-99.99,,2013-02-07 09:32:00,
2013-02-07 02:42:00,9.0,5.0,-100.00,North,-999,-999.0,-999.0,82,-99.99,,,-99.99,,2013-02-07 09:42:00,
2013-02-07 02:52:00,9.0,5.0,-100.00,North,-999,-999.0,-999.0,82,-99.99,,,-99.99,,2013-02-07 09:52:00,
2013-02-07 03:00:00,9.0,3.0,-100.00,North,-999,-999.0,-999.0,75,-99.99,,,-99.99,,2013-02-07 10:00:00,
2013-02-07 03:32:00,9.0,3.0,-100.00,North,-999,-999.0,-999.0,75,-99.99,,,-99.99,,2013-02-07 10:32:00,
2013-02-07 03:42:00,9.0,3.0,-100.00,North,-999,-999.0,-999.0,75,-99.99,,,-99.99,,2013-02-07 10:42:00,
2013-02-07 03:52:00,9.0,3.0,-100.00,North,-999,-999.0,-999.0,75,-99.99,,,-99.99,,2013-02-07 10:52:00,
2013-02-07 04:00:00,9.0,1.0,-100.00,North,-999,-999.0,-999.0,69,-99.99,,,-99.99,,2013-02-07 11:00:00,
2013-02-07 04:32:00,9.0,1.0,-100.00,North,-999,-999.0,-999.0,69,-99.99,,,-99.99,,2013-02-07 11:32:00,
2013-02-07 04:44:00,9.0,1.0,-100.00,North,-999,-999.0,-999.0,69,-99.99,,,-99.99,,2013-02-07 11:44:00,
2013-02-07 04:52:00,9.0,1.0,-100.00,North,-999,-999.0,-999.0,69,-99.99,,,-99.99,,2013-02-07 11:52:00,
2013-02-07 05:00:00,8.0,0.0,-100.00,North,-999,-999.0,-999.0,69,-99.99,,,-99.99,,2013-02-07 12:00:00,
2013-02-07 05:33:00,8.0,0.0,-100.00,North,-999,-999.0,-999.0,69,-99.99,,,-99.99,,2013-02-07 12:33:00,
2013-02-07 05:42:00,8.0,0.0,-100.00,North,-999,-999.0,-999.0,69,-99.99,,,-99.99,,2013-02-07 12:42:00,
2013-02-07 05:53:00,8.0,0.0,-100.00,North,-999,-999.0,-999.0,69,-99.99,,,-99.99,,2013-02-07 12:53:00,
2013-02-07 06:00:00,8.0,0.0,-100.00,North,-999,-999.0,-999.0,67,-99.99,,,-99.99,,2013-02-07 13:00:00,
2013-02-07 06:32:00,8.0,0.0,-100.00,North,-999,-999.0,-999.0,67,-99.99,,,-99.99,,2013-02-07 13:32:00,
2013-02-07 06:42:00,8.0,0.0,-100.00,North,-999,-999.0,-999.0,67,-99.99,,,-99.99,,2013-02-07 13:42:00,
2013-02-07 06:52:00,8.0,0.0,-100.00,North,-999,-999.0,-999.0,67,-99.99,,,-99.99,,2013-02-07 13:52:00,
2013-02-07 07:00:00,8.0,-1.0,-100.00,North,-999,-999.0,-999.0,65,-99.99,,,-99.99,,2013-02-07 14:00:00,
2013-02-07 07:32:00,8.0,-1.0,-100.00,North,-999,-999.0,-999.0,65,-99.99,,,-99.99,,2013-02-07 14:32:00,
2013-02-07 07:42:00,8.0,-1.0,-100.00,North,-999,-999.0,-999.0,65,-99.99,,,-99.99,,2013-02-07 14:42:00,
2013-02-07 07:52:00,8.0,-1.0,-100.00,North,-999,-999.0,-999.0,65,-99.99,,,-99.99,,2013-02-07 14:52:00,
2013-02-07 08:00:00,8.0,-1.0,-100.00,North,-999,-999.0,-999.0,64,-99.99,,,-99.99,,2013-02-07 15:00:00,
2013-02-07 08:32:00,8.0,-1.0,-100.00,North,-999,-999.0,-999.0,64,-99.99,,,-99.99,,2013-02-07 15:32:00,
2013-02-07 08:42:00,8.0,-1.0,-100.00,North,-999,-999.0,-999.0,64,-99.99,,,-99.99,,2013-02-07 15:42:00,
2013-02-07 08:52:00,8.0,-1.0,-100.00,North,-999,-999.0,-999.0,64,-99.99,,,-99.99,,2013-02-07 15:52:00,
2013-02-07 09:00:00,9.0,1.0,-100.00,North,-999,-999.0,-999.0,69,-99.99,,,-99.99,,2013-02-07 16:00:00,
2013-02-07 09:32:00,9.0,1.0,-100.00,North,-999,-999.0,-999.0,69,-99.99,,,-99.99,,2013-02-07 16:32:00,
2013-02-07 09:42:00,9.0,1.0,-100.00,North,-999,-999.0,-999.0,69,-99.99,,,-99.99,,2013-02-07 16:42:00,
2013-02-07 09:52:00,9.0,1.0,-100.00,North,-999,-999.0,-999.0,69,-99.99,,,-99.99,,2013-02-07 16:52:00,
2013-02-07 10:00:00,12.0,2.0,-100.00,North,-999,-999.0,-999.0,63,-99.99,,,-99.99,,2013-02-07 17:00:00,
2013-02-07 10:32:00,12.0,2.0,-100.00,North,-999,-999.0,-999.0,63,-99.99,,,-99.99,,2013-02-07 17:32:00,
2013-02-07 10:43:00,12.0,2.0,-100.00,North,-999,-999.0,-999.0,63,-99.99,,,-99.99,,2013-02-07 17:43:00,
2013-02-07 10:52:00,12.0,2.0,-100.00,North,-999,-999.0,-999.0,63,-99.99,,,-99.99,,2013-02-07 17:52:00,
2013-02-07 11:00:00,20.0,2.0,-100.00,North,-999,-999.0,-999.0,44,-99.99,,,-99.99,,2013-02-07 18:00:00,
2013-02-07 11:32:00,20.0,2.0,-100.00,North,-999,-999.0,-999.0,44,-99.99,,,-99.99,,2013-02-07 18:32:00,
2013-02-07 11:42:00,20.0,2.0,-100.00,North,-999,-999.0,-999.0,44,-99.99,,,-99.99,,2013-02-07 18:42:00,
2013-02-07 11:52:00,20.0,2.0,-100.00,North,-999,-999.0,-999.0,44,-99.99,,,-99.99,,2013-02-07 18:52:00,
2013-02-07 12:00:00,29.0,8.0,-100.00,North,-999,-999.0,-999.0,39,-99.99,,,-99.99,,2013-02-07 19:00:00,
2013-02-07 12:32:00,29.0,8.0,-100.00,North,-999,-999.0,-999.0,39,-99.99,,,-99.99,,2013-02-07 19:32:00,
2013-02-07 12:42:00,29.0,8.0,-100.00,North,-999,-999.0,-999.0,39,-99.99,,,-99.99,,2013-02-07 19:42:00,
2013-02-07 12:52:00,29.0,8.0,-100.00,North,-999,-999.0,-999.0,39,-99.99,,,-99.99,,2013-02-07 19:52:00,
2013-02-07 17:00:00,29.0,-5.0,-100.00,North,-999,-999.0,-999.0,21,-99.99,,,-99.99,,2013-02-08 00:00:00,
2013-02-07 17:32:00,29.0,-5.0,-100.00,North,-999,-999.0,-999.0,21,-99.99,,,-99.99,,2013-02-08 00:32:00,
2013-02-07 17:42:00,29.0,-5.0,-100.00,North,-999,-999.0,-999.0,21,-99.99,,,-99.99,,2013-02-08 00:42:00,
2013-02-07 17:52:00,29.0,-5.0,-100.00,North,-999,-999.0,-999.0,21,-99.99,,,-99.99,,2013-02-08 00:52:00,
2013-02-07 19:00:00,25.0,-11.0,-100.00,North,-999,-999.0,-999.0,19,-99.99,,,-99.99,,2013-02-08 02:00:00,
2013-02-07 19:32:00,25.0,-11.0,-100.00,North,-999,-999.0,-999.0,19,-99.99,,,-99.99,,2013-02-08 02:32:00,
2013-02-07 19:42:00,25.0,-11.0,-100.00,North,-999,-999.0,-999.0,19,-99.99,,,-99.99,,2013-02-08 02:42:00,
2013-02-07 19:52:00,25.0,-11.0,-100.00,North,-999,-999.0,-999.0,19,-99.99,,,-99.99,,2013-02-08 02:52:00,
2013-02-07 20:00:00,24.0,-14.0,-100.00,North,-999,-999.0,-999.0,17,-99.99,,,-99.99,,2013-02-08 03:00:00,
2013-02-07 20:32:00,24.0,-14.0,-100.00,North,-999,-999.0,-999.0,17,-99.99,,,-99.99,,2013-02-08 03:32:00,
2013-02-07 20:42:00,24.0,-14.0,-100.00,North,-999,-999.0,-999.0,17,-99.99,,,-99.99,,2013-02-08 03:42:00,
2013-02-07 20:52:00,24.0,-14.0,-100.00,North,-999,-999.0,-999.0,17,-99.99,,,-99.99,,2013-02-08 03:52:00,
2013-02-07 21:00:00,23.0,-7.0,-100.00,North,-999,-999.0,-999.0,26,-99.99,,,-99.99,,2013-02-08 04:00:00,
2013-02-07 21:32:00,23.0,-7.0,-100.00,North,-999,-999.0,-999.0,26,-99.99,,,-99.99,,2013-02-08 04:32:00,
2013-02-07 21:42:00,23.0,-7.0,-100.00,North,-999,-999.0,-999.0,26,-99.99,,,-99.99,,2013-02-08 04:42:00,
2013-02-07 21:52:00,23.0,-7.0,-100.00,North,-999,-999.0,-999.0,26,-99.99,,,-99.99,,2013-02-08 04:52:00,
2013-02-07 22:00:00,23.0,-5.0,-100.00,North,-999,-999.0,-999.0,27,-99.99,,,-99.99,,2013-02-08 05:00:00,
2013-02-07 22:32:00,23.0,-5.0,-100.00,North,-999,-999.0,-999.0,27,-99.99,,,-99.99,,2013-02-08 05:32:00,
2013-02-07 22:42:00,23.0,-5.0,-100.00,North,-999,-999.0,-999.0,27,-99.99,,,-99.99,,2013-02-08 05:42:00,
2013-02-07 22:52:00,23.0,-5.0,-100.00,North,-999,-999.0,-999.0,27,-99.99,,,-99.99,,2013-02-08 05:52:00,
2013-02-07 23:00:00,23.0,3.0,-100.00,North,-999,-999.0,-999.0,40,-99.99,,,-99.99,,2013-02-08 06:00:00,
2013-02-07 23:32:00,23.0,3.0,-100.00,North,-999,-999.0,-999.0,40,-99.99,,,-99.99,,2013-02-08 06:32:00,
2013-02-07 23:42:00,23.0,3.0,-100.00,North,-999,-999.0,-999.0,40,-99.99,,,-99.99,,2013-02-08 06:42:00,
2013-02-07 23:52:00,23.0,3.0,-100.00,North,-999,-999.0,-999.0,40,-99.99,,,-99.99,,2013-02-08 06:52:00,